CheckWX is a tool to help pilots better visualize weather data.  It is not intended as a substitute for an official pre-flight weather briefing.

20:31:44 UTC

KPAH METAR
Barkley Regional Airport
Paducah, Kentucky, USA
Current

39 mins ago

KPAH 181953Z 35006KT 10SM SCT032 03/M06 A3041 RMK AO2 SLP301 T00281061
Observed
Feb-18 @ 19:53 UTC
Wind
  • 350° at 6 KTS
Visibility
10 SM
Flight Rules
VFR
Cloud Levels
  • Scattered at 3,200' AGL
Temperature
C / 37°F
Dewpoint
-6°C / 21°F
Humidity
52%
Altimeter
30.41" Hg
Pressure
1030.1 hPa
Previous

2 hours ago

KPAH 181853Z 01005KT 10SM FEW032 02/M07 A3041 RMK AO2 SLP302 T00221067
Observed
Feb-18 @ 18:53 UTC
Wind
  • 010° at 5 KTS
Visibility
10 SM
Flight Rules
VFR
Cloud Levels
  • Few at 3,200' AGL
Temperature
C / 36°F
Dewpoint
-7°C / 19°F
Humidity
52%
Altimeter
30.41" Hg
Pressure
1030.2 hPa
Previous

3 hours ago

KPAH 181753Z 32009KT 10SM SCT031 02/M06 A3042 RMK AO2 SLP304 T00171061 10028 21028 51020
Observed
Feb-18 @ 17:53 UTC
Wind
  • 320° at 9 KTS
Visibility
10 SM
Flight Rules
VFR
Cloud Levels
  • Scattered at 3,100' AGL
Temperature
C / 36°F
Dewpoint
-6°C / 21°F
Humidity
56%
Altimeter
30.42" Hg
Pressure
1030.4 hPa